sensor_id;sensor_type;location;lat;lon;timestamp;P1;durP1;ratioP1;P2;durP2;ratioP2
13415;SDS011;6779;50.150;8.680;2022-12-18T00:00:44;30.87;;;11.37;;
13415;SDS011;6779;50.150;8.680;2022-12-18T00:03:11;40.93;;;12.83;;
13415;SDS011;6779;50.150;8.680;2022-12-18T00:05:45;37.80;;;12.90;;
13415;SDS011;6779;50.150;8.680;2022-12-18T00:08:11;30.60;;;11.93;;
13415;SDS011;6779;50.150;8.680;2022-12-18T00:10:37;32.23;;;12.57;;
13415;SDS011;6779;50.150;8.680;2022-12-18T00:13:02;31.57;;;13.13;;
13415;SDS011;6779;50.150;8.680;2022-12-18T00:15:28;33.53;;;12.57;;
13415;SDS011;6779;50.150;8.680;2022-12-18T00:17:53;26.87;;;12.67;;
13415;SDS011;6779;50.150;8.680;2022-12-18T00:20:19;34.73;;;12.93;;
13415;SDS011;6779;50.150;8.680;2022-12-18T00:22:50;29.10;;;12.00;;
13415;SDS011;6779;50.150;8.680;2022-12-18T00:25:16;27.83;;;10.97;;
13415;SDS011;6779;50.150;8.680;2022-12-18T00:27:42;41.80;;;13.33;;
13415;SDS011;6779;50.150;8.680;2022-12-18T00:30:07;28.90;;;10.77;;
13415;SDS011;6779;50.150;8.680;2022-12-18T00:32:33;33.73;;;13.77;;
13415;SDS011;6779;50.150;8.680;2022-12-18T00:34:59;27.23;;;11.83;;
13415;SDS011;6779;50.150;8.680;2022-12-18T00:37:24;36.60;;;11.83;;
13415;SDS011;6779;50.150;8.680;2022-12-18T00:39:50;28.17;;;10.90;;
13415;SDS011;6779;50.150;8.680;2022-12-18T00:42:15;29.20;;;11.30;;
13415;SDS011;6779;50.150;8.680;2022-12-18T00:44:59;34.47;;;12.33;;
13415;SDS011;6779;50.150;8.680;2022-12-18T00:47:25;28.43;;;11.93;;
13415;SDS011;6779;50.150;8.680;2022-12-18T00:49:50;33.10;;;11.03;;
13415;SDS011;6779;50.150;8.680;2022-12-18T00:52:16;29.73;;;11.63;;
13415;SDS011;6779;50.150;8.680;2022-12-18T00:54:41;25.33;;;11.03;;
13415;SDS011;6779;50.150;8.680;2022-12-18T00:57:07;20.93;;;10.13;;
13415;SDS011;6779;50.150;8.680;2022-12-18T00:59:32;26.03;;;11.27;;
13415;SDS011;6779;50.150;8.680;2022-12-18T01:01:57;25.97;;;11.20;;
13415;SDS011;6779;50.150;8.680;2022-12-18T01:04:23;27.13;;;10.20;;
13415;SDS011;6779;50.150;8.680;2022-12-18T01:06:49;29.93;;;11.57;;
13415;SDS011;6779;50.150;8.680;2022-12-18T01:09:14;29.03;;;11.73;;
13415;SDS011;6779;50.150;8.680;2022-12-18T01:11:40;27.93;;;10.90;;
13415;SDS011;6779;50.150;8.680;2022-12-18T01:14:06;32.33;;;11.43;;
13415;SDS011;6779;50.150;8.680;2022-12-18T01:16:31;23.83;;;10.53;;
13415;SDS011;6779;50.150;8.680;2022-12-18T01:18:57;30.70;;;11.90;;
13415;SDS011;6779;50.150;8.680;2022-12-18T01:21:23;26.33;;;11.33;;
13415;SDS011;6779;50.150;8.680;2022-12-18T01:23:52;28.77;;;13.00;;
13415;SDS011;6779;50.150;8.680;2022-12-18T01:26:20;37.17;;;12.03;;
13415;SDS011;6779;50.150;8.680;2022-12-18T01:28:45;32.17;;;11.50;;
13415;SDS011;6779;50.150;8.680;2022-12-18T01:33:47;25.43;;;10.10;;
13415;SDS011;6779;50.150;8.680;2022-12-18T01:39:13;29.17;;;11.43;;
13415;SDS011;6779;50.150;8.680;2022-12-18T01:41:40;31.67;;;12.27;;
13415;SDS011;6779;50.150;8.680;2022-12-18T01:47:28;40.30;;;13.57;;
13415;SDS011;6779;50.150;8.680;2022-12-18T01:52:37;38.40;;;12.10;;
13415;SDS011;6779;50.150;8.680;2022-12-18T01:55:05;30.57;;;12.97;;
13415;SDS011;6779;50.150;8.680;2022-12-18T01:57:32;29.67;;;12.10;;
13415;SDS011;6779;50.150;8.680;2022-12-18T01:59:59;42.47;;;14.13;;
13415;SDS011;6779;50.150;8.680;2022-12-18T02:02:28;31.30;;;12.33;;
13415;SDS011;6779;50.150;8.680;2022-12-18T02:04:55;33.37;;;12.37;;
13415;SDS011;6779;50.150;8.680;2022-12-18T02:10:23;34.87;;;12.03;;
13415;SDS011;6779;50.150;8.680;2022-12-18T02:12:56;36.73;;;13.17;;
13415;SDS011;6779;50.150;8.680;2022-12-18T02:15:45;29.27;;;11.83;;
13415;SDS011;6779;50.150;8.680;2022-12-18T02:18:27;30.73;;;12.77;;
13415;SDS011;6779;50.150;8.680;2022-12-18T02:26:37;35.00;;;13.40;;
13415;SDS011;6779;50.150;8.680;2022-12-18T02:29:12;32.33;;;13.07;;
13415;SDS011;6779;50.150;8.680;2022-12-18T02:31:56;36.63;;;13.67;;
13415;SDS011;6779;50.150;8.680;2022-12-18T02:34:24;34.03;;;11.33;;
13415;SDS011;6779;50.150;8.680;2022-12-18T02:36:54;32.67;;;12.20;;
13415;SDS011;6779;50.150;8.680;2022-12-18T02:39:22;27.80;;;12.07;;
13415;SDS011;6779;50.150;8.680;2022-12-18T02:41:51;30.20;;;12.03;;
13415;SDS011;6779;50.150;8.680;2022-12-18T02:44:17;32.17;;;12.47;;
13415;SDS011;6779;50.150;8.680;2022-12-18T02:46:43;33.80;;;11.87;;
13415;SDS011;6779;50.150;8.680;2022-12-18T02:51:55;37.27;;;12.43;;
13415;SDS011;6779;50.150;8.680;2022-12-18T02:54:45;35.87;;;11.20;;
13415;SDS011;6779;50.150;8.680;2022-12-18T03:00:06;31.70;;;12.73;;
13415;SDS011;6779;50.150;8.680;2022-12-18T03:03:02;41.27;;;14.77;;
13415;SDS011;6779;50.150;8.680;2022-12-18T03:05:41;25.50;;;10.77;;
13415;SDS011;6779;50.150;8.680;2022-12-18T03:08:18;29.77;;;12.87;;
13415;SDS011;6779;50.150;8.680;2022-12-18T03:11:09;26.00;;;11.97;;
13415;SDS011;6779;50.150;8.680;2022-12-18T03:13:38;37.00;;;14.70;;
13415;SDS011;6779;50.150;8.680;2022-12-18T03:16:08;30.30;;;11.63;;
13415;SDS011;6779;50.150;8.680;2022-12-18T03:18:58;34.20;;;13.07;;
13415;SDS011;6779;50.150;8.680;2022-12-18T03:21:45;29.50;;;11.10;;
13415;SDS011;6779;50.150;8.680;2022-12-18T03:24:13;30.00;;;10.97;;
13415;SDS011;6779;50.150;8.680;2022-12-18T03:26:42;24.97;;;10.70;;
13415;SDS011;6779;50.150;8.680;2022-12-18T03:29:33;26.27;;;11.43;;
13415;SDS011;6779;50.150;8.680;2022-12-18T03:32:02;28.70;;;11.10;;
13415;SDS011;6779;50.150;8.680;2022-12-18T03:34:37;26.67;;;11.60;;
13415;SDS011;6779;50.150;8.680;2022-12-18T03:37:05;28.77;;;10.97;;
13415;SDS011;6779;50.150;8.680;2022-12-18T03:39:32;30.90;;;12.10;;
13415;SDS011;6779;50.150;8.680;2022-12-18T03:44:45;27.33;;;12.13;;
13415;SDS011;6779;50.150;8.680;2022-12-18T03:47:40;25.83;;;10.47;;
13415;SDS011;6779;50.150;8.680;2022-12-18T03:50:21;32.73;;;12.13;;
13415;SDS011;6779;50.150;8.680;2022-12-18T03:56:10;29.97;;;11.67;;
13415;SDS011;6779;50.150;8.680;2022-12-18T03:58:38;29.83;;;11.20;;
13415;SDS011;6779;50.150;8.680;2022-12-18T04:01:06;27.70;;;13.13;;
13415;SDS011;6779;50.150;8.680;2022-12-18T04:03:33;32.93;;;11.83;;
13415;SDS011;6779;50.150;8.680;2022-12-18T04:06:00;32.10;;;11.63;;
13415;SDS011;6779;50.150;8.680;2022-12-18T04:08:27;30.30;;;12.67;;
13415;SDS011;6779;50.150;8.680;2022-12-18T04:10:53;29.80;;;12.13;;
13415;SDS011;6779;50.150;8.680;2022-12-18T04:13:29;30.13;;;11.77;;
13415;SDS011;6779;50.150;8.680;2022-12-18T04:15:58;23.33;;;11.03;;
13415;SDS011;6779;50.150;8.680;2022-12-18T04:18:24;32.77;;;12.83;;
13415;SDS011;6779;50.150;8.680;2022-12-18T04:20:50;35.20;;;11.47;;
13415;SDS011;6779;50.150;8.680;2022-12-18T04:23:15;27.33;;;11.30;;
13415;SDS011;6779;50.150;8.680;2022-12-18T04:25:41;31.80;;;11.47;;
13415;SDS011;6779;50.150;8.680;2022-12-18T04:28:07;34.57;;;13.43;;
13415;SDS011;6779;50.150;8.680;2022-12-18T04:30:32;28.33;;;12.50;;
13415;SDS011;6779;50.150;8.680;2022-12-18T04:32:58;34.40;;;12.43;;
13415;SDS011;6779;50.150;8.680;2022-12-18T04:35:23;26.47;;;11.93;;
13415;SDS011;6779;50.150;8.680;2022-12-18T04:37:49;29.87;;;12.97;;
13415;SDS011;6779;50.150;8.680;2022-12-18T04:40:14;31.90;;;11.47;;
13415;SDS011;6779;50.150;8.680;2022-12-18T04:42:40;33.30;;;13.20;;
13415;SDS011;6779;50.150;8.680;2022-12-18T04:45:06;29.27;;;12.10;;
13415;SDS011;6779;50.150;8.680;2022-12-18T04:47:32;26.97;;;11.13;;
13415;SDS011;6779;50.150;8.680;2022-12-18T04:49:58;29.87;;;12.10;;
13415;SDS011;6779;50.150;8.680;2022-12-18T04:52:24;30.33;;;11.93;;
13415;SDS011;6779;50.150;8.680;2022-12-18T04:54:49;27.70;;;9.53;;
13415;SDS011;6779;50.150;8.680;2022-12-18T04:57:15;27.50;;;11.77;;
13415;SDS011;6779;50.150;8.680;2022-12-18T04:59:40;29.17;;;11.50;;
13415;SDS011;6779;50.150;8.680;2022-12-18T05:02:06;32.20;;;12.07;;
13415;SDS011;6779;50.150;8.680;2022-12-18T05:04:31;31.90;;;12.47;;
13415;SDS011;6779;50.150;8.680;2022-12-18T05:06:57;26.50;;;12.77;;
13415;SDS011;6779;50.150;8.680;2022-12-18T05:09:23;34.43;;;13.20;;
13415;SDS011;6779;50.150;8.680;2022-12-18T05:11:48;32.27;;;12.67;;
13415;SDS011;6779;50.150;8.680;2022-12-18T05:14:14;35.13;;;12.57;;
13415;SDS011;6779;50.150;8.680;2022-12-18T05:16:40;33.73;;;11.53;;
13415;SDS011;6779;50.150;8.680;2022-12-18T05:19:05;34.90;;;12.00;;
13415;SDS011;6779;50.150;8.680;2022-12-18T05:21:31;31.20;;;10.93;;
13415;SDS011;6779;50.150;8.680;2022-12-18T05:23:56;28.33;;;11.23;;
13415;SDS011;6779;50.150;8.680;2022-12-18T05:26:22;27.20;;;10.60;;
13415;SDS011;6779;50.150;8.680;2022-12-18T05:28:48;30.93;;;12.53;;
13415;SDS011;6779;50.150;8.680;2022-12-18T05:31:13;24.83;;;9.50;;
13415;SDS011;6779;50.150;8.680;2022-12-18T05:33:39;25.33;;;11.00;;
13415;SDS011;6779;50.150;8.680;2022-12-18T05:36:06;22.50;;;11.03;;
13415;SDS011;6779;50.150;8.680;2022-12-18T05:38:33;24.53;;;10.37;;
13415;SDS011;6779;50.150;8.680;2022-12-18T05:41:00;24.30;;;10.57;;
13415;SDS011;6779;50.150;8.680;2022-12-18T05:43:26;32.00;;;12.17;;
13415;SDS011;6779;50.150;8.680;2022-12-18T05:45:53;29.83;;;12.63;;
13415;SDS011;6779;50.150;8.680;2022-12-18T05:48:19;29.50;;;12.27;;
13415;SDS011;6779;50.150;8.680;2022-12-18T05:50:46;25.03;;;11.47;;
13415;SDS011;6779;50.150;8.680;2022-12-18T05:53:13;33.50;;;11.83;;
13415;SDS011;6779;50.150;8.680;2022-12-18T05:55:41;32.10;;;11.87;;
13415;SDS011;6779;50.150;8.680;2022-12-18T05:58:07;31.43;;;12.63;;
13415;SDS011;6779;50.150;8.680;2022-12-18T06:00:34;31.47;;;13.73;;
13415;SDS011;6779;50.150;8.680;2022-12-18T06:03:04;26.73;;;13.10;;
13415;SDS011;6779;50.150;8.680;2022-12-18T06:05:34;28.13;;;12.17;;
13415;SDS011;6779;50.150;8.680;2022-12-18T06:08:02;35.07;;;12.67;;
13415;SDS011;6779;50.150;8.680;2022-12-18T06:10:27;37.50;;;12.43;;
13415;SDS011;6779;50.150;8.680;2022-12-18T06:12:53;26.00;;;11.87;;
13415;SDS011;6779;50.150;8.680;2022-12-18T06:15:18;31.20;;;11.77;;
13415;SDS011;6779;50.150;8.680;2022-12-18T06:17:44;25.87;;;11.70;;
13415;SDS011;6779;50.150;8.680;2022-12-18T06:20:09;23.43;;;10.07;;
13415;SDS011;6779;50.150;8.680;2022-12-18T06:22:35;32.63;;;12.70;;
13415;SDS011;6779;50.150;8.680;2022-12-18T06:25:00;33.20;;;12.90;;
13415;SDS011;6779;50.150;8.680;2022-12-18T06:27:26;26.37;;;12.20;;
13415;SDS011;6779;50.150;8.680;2022-12-18T06:29:52;26.87;;;10.73;;
13415;SDS011;6779;50.150;8.680;2022-12-18T06:32:17;31.37;;;12.60;;
13415;SDS011;6779;50.150;8.680;2022-12-18T06:34:43;26.90;;;11.43;;
13415;SDS011;6779;50.150;8.680;2022-12-18T06:37:08;19.60;;;10.77;;
13415;SDS011;6779;50.150;8.680;2022-12-18T06:39:33;23.37;;;9.77;;
13415;SDS011;6779;50.150;8.680;2022-12-18T06:41:59;34.40;;;11.80;;
13415;SDS011;6779;50.150;8.680;2022-12-18T06:44:24;31.30;;;12.90;;
13415;SDS011;6779;50.150;8.680;2022-12-18T06:46:50;30.47;;;12.10;;
13415;SDS011;6779;50.150;8.680;2022-12-18T06:49:15;25.23;;;12.00;;
13415;SDS011;6779;50.150;8.680;2022-12-18T06:51:41;27.60;;;10.83;;
13415;SDS011;6779;50.150;8.680;2022-12-18T06:54:07;23.03;;;11.10;;
13415;SDS011;6779;50.150;8.680;2022-12-18T06:56:32;25.87;;;9.90;;
13415;SDS011;6779;50.150;8.680;2022-12-18T06:58:58;27.27;;;10.57;;
13415;SDS011;6779;50.150;8.680;2022-12-18T07:01:24;33.23;;;12.17;;
13415;SDS011;6779;50.150;8.680;2022-12-18T07:03:53;21.87;;;11.60;;
13415;SDS011;6779;50.150;8.680;2022-12-18T07:06:20;30.07;;;13.07;;
13415;SDS011;6779;50.150;8.680;2022-12-18T07:08:48;31.00;;;12.37;;
13415;SDS011;6779;50.150;8.680;2022-12-18T07:11:14;33.23;;;12.80;;
13415;SDS011;6779;50.150;8.680;2022-12-18T07:13:41;30.47;;;11.63;;
13415;SDS011;6779;50.150;8.680;2022-12-18T07:18:34;23.77;;;10.67;;
13415;SDS011;6779;50.150;8.680;2022-12-18T07:21:02;37.43;;;13.60;;
13415;SDS011;6779;50.150;8.680;2022-12-18T07:23:29;31.07;;;12.23;;
13415;SDS011;6779;50.150;8.680;2022-12-18T07:26:00;26.90;;;9.93;;
13415;SDS011;6779;50.150;8.680;2022-12-18T07:28:33;27.50;;;11.17;;
13415;SDS011;6779;50.150;8.680;2022-12-18T07:31:03;29.07;;;11.67;;
13415;SDS011;6779;50.150;8.680;2022-12-18T07:33:33;26.37;;;13.37;;
13415;SDS011;6779;50.150;8.680;2022-12-18T07:35:59;31.07;;;11.60;;
13415;SDS011;6779;50.150;8.680;2022-12-18T07:38:26;25.23;;;11.20;;
13415;SDS011;6779;50.150;8.680;2022-12-18T07:40:52;33.50;;;13.63;;
13415;SDS011;6779;50.150;8.680;2022-12-18T07:43:17;30.43;;;10.80;;
13415;SDS011;6779;50.150;8.680;2022-12-18T07:45:43;32.10;;;12.47;;
13415;SDS011;6779;50.150;8.680;2022-12-18T07:48:08;35.00;;;13.47;;
13415;SDS011;6779;50.150;8.680;2022-12-18T07:50:34;26.20;;;12.13;;
13415;SDS011;6779;50.150;8.680;2022-12-18T07:53:00;29.23;;;13.13;;
13415;SDS011;6779;50.150;8.680;2022-12-18T07:55:28;28.77;;;11.40;;
13415;SDS011;6779;50.150;8.680;2022-12-18T07:57:54;30.93;;;12.83;;
13415;SDS011;6779;50.150;8.680;2022-12-18T08:00:20;26.60;;;12.10;;
13415;SDS011;6779;50.150;8.680;2022-12-18T08:02:46;27.60;;;10.97;;
13415;SDS011;6779;50.150;8.680;2022-12-18T08:05:12;33.03;;;13.43;;
13415;SDS011;6779;50.150;8.680;2022-12-18T08:07:38;28.10;;;12.73;;
13415;SDS011;6779;50.150;8.680;2022-12-18T08:10:04;31.40;;;11.73;;
13415;SDS011;6779;50.150;8.680;2022-12-18T08:12:30;35.63;;;13.47;;
13415;SDS011;6779;50.150;8.680;2022-12-18T08:14:55;28.90;;;12.63;;
13415;SDS011;6779;50.150;8.680;2022-12-18T08:17:21;25.27;;;11.37;;
13415;SDS011;6779;50.150;8.680;2022-12-18T08:19:47;29.80;;;12.23;;
13415;SDS011;6779;50.150;8.680;2022-12-18T08:22:12;32.63;;;13.40;;
13415;SDS011;6779;50.150;8.680;2022-12-18T08:24:38;27.27;;;11.67;;
13415;SDS011;6779;50.150;8.680;2022-12-18T08:27:03;30.03;;;12.20;;
13415;SDS011;6779;50.150;8.680;2022-12-18T08:29:29;28.27;;;12.80;;
13415;SDS011;6779;50.150;8.680;2022-12-18T08:31:55;30.40;;;12.97;;
13415;SDS011;6779;50.150;8.680;2022-12-18T08:34:20;24.37;;;11.30;;
13415;SDS011;6779;50.150;8.680;2022-12-18T08:36:46;29.73;;;13.13;;
13415;SDS011;6779;50.150;8.680;2022-12-18T08:39:12;29.63;;;13.03;;
13415;SDS011;6779;50.150;8.680;2022-12-18T08:41:37;32.37;;;13.50;;
13415;SDS011;6779;50.150;8.680;2022-12-18T08:44:03;33.50;;;13.07;;
13415;SDS011;6779;50.150;8.680;2022-12-18T08:46:46;29.83;;;12.03;;
13415;SDS011;6779;50.150;8.680;2022-12-18T08:49:12;30.20;;;12.77;;
13415;SDS011;6779;50.150;8.680;2022-12-18T08:51:38;36.00;;;13.37;;
13415;SDS011;6779;50.150;8.680;2022-12-18T08:54:04;29.17;;;12.80;;
13415;SDS011;6779;50.150;8.680;2022-12-18T08:56:30;29.77;;;13.37;;
13415;SDS011;6779;50.150;8.680;2022-12-18T08:58:56;29.20;;;13.33;;
13415;SDS011;6779;50.150;8.680;2022-12-18T09:01:22;30.23;;;12.53;;
13415;SDS011;6779;50.150;8.680;2022-12-18T09:03:48;27.23;;;12.77;;
13415;SDS011;6779;50.150;8.680;2022-12-18T09:06:15;30.80;;;13.03;;
13415;SDS011;6779;50.150;8.680;2022-12-18T09:08:43;26.53;;;13.90;;
13415;SDS011;6779;50.150;8.680;2022-12-18T09:11:20;29.43;;;13.37;;
13415;SDS011;6779;50.150;8.680;2022-12-18T09:13:47;31.63;;;14.67;;
13415;SDS011;6779;50.150;8.680;2022-12-18T09:16:14;36.80;;;16.60;;
13415;SDS011;6779;50.150;8.680;2022-12-18T09:18:40;53.83;;;22.50;;
13415;SDS011;6779;50.150;8.680;2022-12-18T09:21:09;42.00;;;18.07;;
13415;SDS011;6779;50.150;8.680;2022-12-18T09:23:36;31.30;;;14.70;;
13415;SDS011;6779;50.150;8.680;2022-12-18T09:26:02;35.47;;;16.67;;
13415;SDS011;6779;50.150;8.680;2022-12-18T09:28:28;35.53;;;15.90;;
13415;SDS011;6779;50.150;8.680;2022-12-18T09:30:53;33.03;;;15.57;;
13415;SDS011;6779;50.150;8.680;2022-12-18T09:33:19;32.70;;;15.30;;
13415;SDS011;6779;50.150;8.680;2022-12-18T09:35:45;35.43;;;15.13;;
13415;SDS011;6779;50.150;8.680;2022-12-18T09:38:11;35.83;;;16.00;;
13415;SDS011;6779;50.150;8.680;2022-12-18T09:40:43;35.63;;;16.30;;
13415;SDS011;6779;50.150;8.680;2022-12-18T09:43:14;33.40;;;15.10;;
13415;SDS011;6779;50.150;8.680;2022-12-18T09:45:55;36.47;;;15.37;;
13415;SDS011;6779;50.150;8.680;2022-12-18T09:48:28;33.10;;;16.43;;
13415;SDS011;6779;50.150;8.680;2022-12-18T09:51:20;34.60;;;14.43;;
13415;SDS011;6779;50.150;8.680;2022-12-18T09:53:57;39.83;;;17.80;;
13415;SDS011;6779;50.150;8.680;2022-12-18T09:56:26;38.70;;;15.43;;
13415;SDS011;6779;50.150;8.680;2022-12-18T09:58:57;30.27;;;15.77;;
13415;SDS011;6779;50.150;8.680;2022-12-18T10:01:24;33.73;;;14.97;;
13415;SDS011;6779;50.150;8.680;2022-12-18T10:03:52;35.63;;;16.57;;
13415;SDS011;6779;50.150;8.680;2022-12-18T10:06:20;34.30;;;16.27;;
13415;SDS011;6779;50.150;8.680;2022-12-18T10:11:32;35.87;;;17.00;;
13415;SDS011;6779;50.150;8.680;2022-12-18T10:14:23;38.03;;;17.27;;
13415;SDS011;6779;50.150;8.680;2022-12-18T10:17:02;39.43;;;16.40;;
13415;SDS011;6779;50.150;8.680;2022-12-18T10:19:47;39.77;;;17.00;;
13415;SDS011;6779;50.150;8.680;2022-12-18T10:22:23;43.43;;;17.13;;
13415;SDS011;6779;50.150;8.680;2022-12-18T10:27:53;43.47;;;17.67;;
13415;SDS011;6779;50.150;8.680;2022-12-18T10:30:23;43.20;;;18.13;;
13415;SDS011;6779;50.150;8.680;2022-12-18T10:32:50;34.17;;;16.37;;
13415;SDS011;6779;50.150;8.680;2022-12-18T10:35:23;44.03;;;16.63;;
13415;SDS011;6779;50.150;8.680;2022-12-18T10:38:03;44.33;;;18.67;;
13415;SDS011;6779;50.150;8.680;2022-12-18T10:48:36;39.37;;;16.90;;
13415;SDS011;6779;50.150;8.680;2022-12-18T10:51:06;42.10;;;16.83;;
13415;SDS011;6779;50.150;8.680;2022-12-18T10:53:33;42.47;;;18.00;;
13415;SDS011;6779;50.150;8.680;2022-12-18T10:56:01;49.30;;;18.63;;
13415;SDS011;6779;50.150;8.680;2022-12-18T10:58:30;40.73;;;17.33;;
13415;SDS011;6779;50.150;8.680;2022-12-18T11:01:02;39.20;;;16.17;;
13415;SDS011;6779;50.150;8.680;2022-12-18T11:03:42;44.03;;;18.00;;
13415;SDS011;6779;50.150;8.680;2022-12-18T11:06:17;39.07;;;16.43;;
13415;SDS011;6779;50.150;8.680;2022-12-18T11:08:46;39.73;;;16.43;;
13415;SDS011;6779;50.150;8.680;2022-12-18T11:11:48;35.97;;;15.57;;
13415;SDS011;6779;50.150;8.680;2022-12-18T11:14:18;46.47;;;17.70;;
13415;SDS011;6779;50.150;8.680;2022-12-18T11:16:46;38.13;;;16.07;;
13415;SDS011;6779;50.150;8.680;2022-12-18T11:19:17;41.97;;;16.40;;
13415;SDS011;6779;50.150;8.680;2022-12-18T11:21:47;40.13;;;16.20;;
13415;SDS011;6779;50.150;8.680;2022-12-18T11:24:34;36.63;;;16.20;;
13415;SDS011;6779;50.150;8.680;2022-12-18T11:27:03;45.57;;;18.80;;
13415;SDS011;6779;50.150;8.680;2022-12-18T11:32:21;40.23;;;18.33;;
13415;SDS011;6779;50.150;8.680;2022-12-18T11:34:54;41.50;;;17.10;;
13415;SDS011;6779;50.150;8.680;2022-12-18T11:37:27;43.33;;;18.83;;
13415;SDS011;6779;50.150;8.680;2022-12-18T11:39:55;40.13;;;18.27;;
13415;SDS011;6779;50.150;8.680;2022-12-18T11:42:32;37.23;;;17.77;;
13415;SDS011;6779;50.150;8.680;2022-12-18T11:50:19;38.97;;;17.73;;
13415;SDS011;6779;50.150;8.680;2022-12-18T11:52:50;47.83;;;18.40;;
13415;SDS011;6779;50.150;8.680;2022-12-18T11:55:21;37.13;;;17.67;;
13415;SDS011;6779;50.150;8.680;2022-12-18T12:00:45;38.53;;;16.10;;
13415;SDS011;6779;50.150;8.680;2022-12-18T12:06:14;44.03;;;18.47;;
13415;SDS011;6779;50.150;8.680;2022-12-18T12:09:16;41.30;;;16.87;;
13415;SDS011;6779;50.150;8.680;2022-12-18T12:11:58;51.90;;;21.27;;
13415;SDS011;6779;50.150;8.680;2022-12-18T12:22:31;47.67;;;18.57;;
13415;SDS011;6779;50.150;8.680;2022-12-18T12:31:07;41.60;;;17.90;;
13415;SDS011;6779;50.150;8.680;2022-12-18T12:39:15;37.67;;;16.57;;
13415;SDS011;6779;50.150;8.680;2022-12-18T12:41:44;46.03;;;16.60;;
13415;SDS011;6779;50.150;8.680;2022-12-18T12:44:30;40.47;;;15.70;;
13415;SDS011;6779;50.150;8.680;2022-12-18T12:47:05;48.50;;;17.57;;
13415;SDS011;6779;50.150;8.680;2022-12-18T12:49:37;48.23;;;19.03;;
13415;SDS011;6779;50.150;8.680;2022-12-18T12:52:06;44.20;;;17.13;;
13415;SDS011;6779;50.150;8.680;2022-12-18T12:54:37;40.97;;;16.07;;
13415;SDS011;6779;50.150;8.680;2022-12-18T12:57:06;41.70;;;16.93;;
13415;SDS011;6779;50.150;8.680;2022-12-18T12:59:47;41.23;;;14.87;;
13415;SDS011;6779;50.150;8.680;2022-12-18T13:05:21;42.00;;;16.13;;
13415;SDS011;6779;50.150;8.680;2022-12-18T13:07:59;52.13;;;15.47;;
13415;SDS011;6779;50.150;8.680;2022-12-18T13:10:37;48.90;;;16.43;;
13415;SDS011;6779;50.150;8.680;2022-12-18T13:13:05;37.83;;;17.10;;
13415;SDS011;6779;50.150;8.680;2022-12-18T13:15:45;42.43;;;17.30;;
13415;SDS011;6779;50.150;8.680;2022-12-18T13:18:19;43.20;;;16.70;;
13415;SDS011;6779;50.150;8.680;2022-12-18T13:20:47;45.23;;;16.67;;
13415;SDS011;6779;50.150;8.680;2022-12-18T13:23:37;47.83;;;16.17;;
13415;SDS011;6779;50.150;8.680;2022-12-18T13:31:13;42.00;;;16.17;;
13415;SDS011;6779;50.150;8.680;2022-12-18T13:36:47;46.00;;;16.20;;
13415;SDS011;6779;50.150;8.680;2022-12-18T13:41:42;41.87;;;16.50;;
13415;SDS011;6779;50.150;8.680;2022-12-18T13:46:57;33.47;;;14.90;;
13415;SDS011;6779;50.150;8.680;2022-12-18T13:49:45;42.93;;;16.13;;
13415;SDS011;6779;50.150;8.680;2022-12-18T13:52:21;31.67;;;15.17;;
13415;SDS011;6779;50.150;8.680;2022-12-18T13:54:54;38.33;;;15.77;;
13415;SDS011;6779;50.150;8.680;2022-12-18T13:57:28;38.37;;;15.43;;
13415;SDS011;6779;50.150;8.680;2022-12-18T13:59:55;37.13;;;15.57;;
13415;SDS011;6779;50.150;8.680;2022-12-18T14:02:22;38.27;;;16.33;;
13415;SDS011;6779;50.150;8.680;2022-12-18T14:04:50;48.97;;;16.37;;
13415;SDS011;6779;50.150;8.680;2022-12-18T14:07:17;40.63;;;15.70;;
13415;SDS011;6779;50.150;8.680;2022-12-18T14:09:46;40.23;;;16.30;;
13415;SDS011;6779;50.150;8.680;2022-12-18T14:12:16;40.47;;;14.87;;
13415;SDS011;6779;50.150;8.680;2022-12-18T14:15:01;45.23;;;15.80;;
13415;SDS011;6779;50.150;8.680;2022-12-18T14:17:27;38.23;;;15.77;;
13415;SDS011;6779;50.150;8.680;2022-12-18T14:19:53;37.10;;;15.77;;
13415;SDS011;6779;50.150;8.680;2022-12-18T14:22:23;43.23;;;15.87;;
13415;SDS011;6779;50.150;8.680;2022-12-18T14:27:44;43.50;;;15.30;;
13415;SDS011;6779;50.150;8.680;2022-12-18T14:35:35;36.73;;;14.73;;
13415;SDS011;6779;50.150;8.680;2022-12-18T14:40:44;37.57;;;16.03;;
13415;SDS011;6779;50.150;8.680;2022-12-18T14:43:13;39.43;;;15.10;;
13415;SDS011;6779;50.150;8.680;2022-12-18T14:45:39;36.13;;;15.63;;
13415;SDS011;6779;50.150;8.680;2022-12-18T14:50:42;38.83;;;14.90;;
13415;SDS011;6779;50.150;8.680;2022-12-18T14:53:22;42.13;;;15.63;;
13415;SDS011;6779;50.150;8.680;2022-12-18T14:55:53;38.47;;;15.97;;
13415;SDS011;6779;50.150;8.680;2022-12-18T14:58:19;39.10;;;15.83;;
13415;SDS011;6779;50.150;8.680;2022-12-18T15:00:44;44.53;;;16.47;;
13415;SDS011;6779;50.150;8.680;2022-12-18T15:03:12;40.30;;;14.40;;
13415;SDS011;6779;50.150;8.680;2022-12-18T15:05:42;42.10;;;14.80;;
13415;SDS011;6779;50.150;8.680;2022-12-18T15:11:03;43.87;;;17.37;;
13415;SDS011;6779;50.150;8.680;2022-12-18T15:13:48;37.93;;;16.17;;
13415;SDS011;6779;50.150;8.680;2022-12-18T15:16:14;43.47;;;16.60;;
13415;SDS011;6779;50.150;8.680;2022-12-18T15:18:41;48.57;;;17.10;;
13415;SDS011;6779;50.150;8.680;2022-12-18T15:21:10;45.03;;;16.27;;
13415;SDS011;6779;50.150;8.680;2022-12-18T15:23:47;43.17;;;16.13;;
13415;SDS011;6779;50.150;8.680;2022-12-18T15:26:15;37.30;;;16.13;;
13415;SDS011;6779;50.150;8.680;2022-12-18T15:28:49;36.37;;;16.17;;
13415;SDS011;6779;50.150;8.680;2022-12-18T15:31:33;48.27;;;16.93;;
13415;SDS011;6779;50.150;8.680;2022-12-18T15:36:30;48.70;;;17.90;;
13415;SDS011;6779;50.150;8.680;2022-12-18T15:38:56;51.33;;;19.63;;
13415;SDS011;6779;50.150;8.680;2022-12-18T15:41:23;48.83;;;18.20;;
13415;SDS011;6779;50.150;8.680;2022-12-18T15:43:49;43.43;;;18.60;;
13415;SDS011;6779;50.150;8.680;2022-12-18T15:46:20;44.00;;;18.63;;
13415;SDS011;6779;50.150;8.680;2022-12-18T15:48:48;48.43;;;18.40;;
13415;SDS011;6779;50.150;8.680;2022-12-18T15:51:28;44.77;;;17.20;;
13415;SDS011;6779;50.150;8.680;2022-12-18T15:53:59;55.60;;;21.27;;
13415;SDS011;6779;50.150;8.680;2022-12-18T15:56:26;47.43;;;20.27;;
13415;SDS011;6779;50.150;8.680;2022-12-18T15:59:12;48.47;;;19.60;;
13415;SDS011;6779;50.150;8.680;2022-12-18T16:01:39;51.47;;;19.27;;
13415;SDS011;6779;50.150;8.680;2022-12-18T16:04:06;46.47;;;19.37;;
13415;SDS011;6779;50.150;8.680;2022-12-18T16:06:31;44.70;;;18.77;;
13415;SDS011;6779;50.150;8.680;2022-12-18T16:08:57;43.30;;;18.23;;
13415;SDS011;6779;50.150;8.680;2022-12-18T16:11:26;42.83;;;18.80;;
13415;SDS011;6779;50.150;8.680;2022-12-18T16:16:51;47.93;;;18.93;;
13415;SDS011;6779;50.150;8.680;2022-12-18T16:19:18;51.17;;;20.33;;
13415;SDS011;6779;50.150;8.680;2022-12-18T16:21:46;54.30;;;22.57;;
13415;SDS011;6779;50.150;8.680;2022-12-18T16:24:16;53.50;;;21.67;;
13415;SDS011;6779;50.150;8.680;2022-12-18T16:26:46;54.97;;;21.23;;
13415;SDS011;6779;50.150;8.680;2022-12-18T16:29:12;49.27;;;20.73;;
13415;SDS011;6779;50.150;8.680;2022-12-18T16:31:38;48.03;;;21.27;;
13415;SDS011;6779;50.150;8.680;2022-12-18T16:34:11;48.77;;;19.80;;
13415;SDS011;6779;50.150;8.680;2022-12-18T16:36:36;49.70;;;20.83;;
13415;SDS011;6779;50.150;8.680;2022-12-18T16:39:02;51.83;;;21.83;;
13415;SDS011;6779;50.150;8.680;2022-12-18T16:41:27;52.77;;;21.57;;
13415;SDS011;6779;50.150;8.680;2022-12-18T16:43:55;57.03;;;22.53;;
13415;SDS011;6779;50.150;8.680;2022-12-18T16:46:21;55.23;;;24.60;;
13415;SDS011;6779;50.150;8.680;2022-12-18T16:48:46;77.77;;;30.07;;